Beverly, KY (40913)

7:34 PM EDT on July 28, 2016 (GMT -0400)
crawford rd | | Change Station

Elev 856 ft 37.11 °N, 83.75 °W | Updated 1 second ago

Overcast
Overcast
74.2 °F
Feels Like 74 °F
N
0.0
Wind Variable Wind from SSE
Gusts 0.0 mph

Today
High -- | Low -- °F
--% Chance of Precip.
Yesterday
High -- | Low -- °F
Precip. -- in
Pressure 29.94 in
Visibility 5.0 miles
Clouds Scattered Clouds 700 ft
Mostly Cloudy 7000 ft
Overcast 10000 ft
Heat Index 74 °F
Dew Point 69 °F
Humidity 84%
Rainfall 1.61 in
Snow Depth Not available.
6:36 AM 8:44 PM
Waning Crescent, 28% visible
METAR K1A6 282315Z AUTO 00000KT 5SM RA SCT007 BKN070 OVC100 22/22 A2994 RMK AO2 LTG DSNT S P0003 T02200219
Pressure 29.94 in
Visibility 5.0 miles
Clouds Scattered Clouds 700 ft
Mostly Cloudy 7000 ft
Overcast 10000 ft
Heat Index 74 °F
Dew Point 69 °F
Humidity 84%
Rainfall 1.61 in
Snow Depth Not available.
6:36 AM 8:44 PM
Waning Crescent, 28% visible
METAR K1A6 282315Z AUTO 00000KT 5SM RA SCT007 BKN070 OVC100 22/22 A2994 RMK AO2 LTG DSNT S P0003 T02200219

10-Day Weather Forecast

Almanac

Astronomy

Jul. 28, 2016 Rise Set
Actual Time
Civil Twilight
Nautical Twilight
Astronomical Twilight
Moon
Length of Visible Light
Length of Day
Tomorrow will be .
, % of the Moon is Illuminated

Today's Extremes

State Highs State Lows

Community

WunderPhotos

Upload Photos

1,928,228 photos uploaded!

WunderBlog® & News

Nearby

Air Quality

  Air Quality AQ Index Pollutant
Not available.

Snow Depth

Station Depth Elevation

Earthquake Activity

City Distance Mag. Time & Date
Minimum magnitude displayed is 2.5.

Coastal Water Temperatures

Place Temperature

Stations

Nearby Weather Stations

Station Location Temp. Windchill Dew Point Humidity Wind Precip. Elev Updated Type
                   

Watches & Warnings

There are currently no watches in effect.